首页
METAR-TAF:

METAR-TAF

机场 :

奧爾德尼島,

纬度: 49-43N, 经度: 002-12W, 海拔: 71米

当前天气观测

该预报发布于22分钟前的15:50 UTC
风速18节,风向西
温度 15°C
湿度 63%
气压 1002 hPa
能见度10公里或以上
少量云层高于2200英尺
多云层高于3000英尺

METAR: EGJA 231550Z 26018KT 9999 FEW022 BKN030 15/08 Q1002

时间: 17:12 (16:12 UTC)

预报

该预报发布于2小时和14分钟前的13:58 UTC
预报有效从23日的 15点(UTC)到 24日的 00点(UTC)
风速20节,风向西
能见度10公里或以上
散云层高于1500英尺
几率 30% :
短暂存在
从 23日的 15点(UTC)到 24日的 00点(UTC)
风速22节,风向西,有时为32节阵风
能見度: 6000
多云层高于1500英尺
阵雨
成为
从 23日的 22点(UTC)到 24日的 00点(UTC)
风速22节,风向西南,有时为32节阵风

TAF: EGJA 231358Z 2315/2400 27020KT 9999 SCT015 PROB30 TEMPO 2315/2400 28022G32KT 6000 SHRA BKN015 BECMG 2322/2400 23022G32KT

超过4000个机场的气象观测和天气预报(METAR&TAF报告)。

可查询的气象台以黄色和红色小点在地图上表示。

将鼠标移到小点上方,可查看气象台名称。

然后点击查看天气观测和预报。

如需切换地图:点击带黑十字的绿色按钮放大地图;点击带横线的绿色按钮缩小地图;或者点击绿色箭头查看邻近地区的地图。


METAR-TAF: